sensor_id;sensor_type;location;lat;lon;timestamp;temperature;humidity
3752;DHT22;50827;47.014;7.652;2023-07-09T00:00:46;21.60;99.90
3752;DHT22;50827;47.014;7.652;2023-07-09T00:03:18;21.60;99.90
3752;DHT22;50827;47.014;7.652;2023-07-09T00:05:47;21.60;99.90
3752;DHT22;50827;47.014;7.652;2023-07-09T00:08:31;21.50;99.90
3752;DHT22;50827;47.014;7.652;2023-07-09T00:10:58;21.60;99.90
3752;DHT22;50827;47.014;7.652;2023-07-09T00:13:26;21.50;99.90
3752;DHT22;50827;47.014;7.652;2023-07-09T00:15:58;21.40;99.90
3752;DHT22;50827;47.014;7.652;2023-07-09T00:18:26;21.30;99.90
3752;DHT22;50827;47.014;7.652;2023-07-09T00:20:53;21.30;99.90
3752;DHT22;50827;47.014;7.652;2023-07-09T00:23:20;21.30;99.90
3752;DHT22;50827;47.014;7.652;2023-07-09T00:25:47;21.20;99.90
3752;DHT22;50827;47.014;7.652;2023-07-09T00:28:15;21.20;99.90
3752;DHT22;50827;47.014;7.652;2023-07-09T00:30:44;21.10;99.90
3752;DHT22;50827;47.014;7.652;2023-07-09T00:33:13;21.00;99.90
3752;DHT22;50827;47.014;7.652;2023-07-09T00:35:42;20.90;99.90
3752;DHT22;50827;47.014;7.652;2023-07-09T00:38:13;21.00;99.90
3752;DHT22;50827;47.014;7.652;2023-07-09T00:40:46;20.90;99.90
3752;DHT22;50827;47.014;7.652;2023-07-09T00:43:16;20.80;99.90
3752;DHT22;50827;47.014;7.652;2023-07-09T00:45:43;20.80;99.90
3752;DHT22;50827;47.014;7.652;2023-07-09T00:48:14;20.80;99.90
3752;DHT22;50827;47.014;7.652;2023-07-09T00:50:48;20.70;99.90
3752;DHT22;50827;47.014;7.652;2023-07-09T00:53:26;20.70;99.90
3752;DHT22;50827;47.014;7.652;2023-07-09T00:56:02;20.70;99.90
3752;DHT22;50827;47.014;7.652;2023-07-09T00:58:31;20.70;99.90
3752;DHT22;50827;47.014;7.652;2023-07-09T01:01:13;20.70;99.90
3752;DHT22;50827;47.014;7.652;2023-07-09T01:03:45;20.80;99.90
3752;DHT22;50827;47.014;7.652;2023-07-09T01:06:15;20.70;99.90
3752;DHT22;50827;47.014;7.652;2023-07-09T01:08:45;20.60;99.90
3752;DHT22;50827;47.014;7.652;2023-07-09T01:11:16;20.70;99.90
3752;DHT22;50827;47.014;7.652;2023-07-09T01:13:59;20.60;99.90
3752;DHT22;50827;47.014;7.652;2023-07-09T01:16:31;20.60;99.90
3752;DHT22;50827;47.014;7.652;2023-07-09T01:19:00;20.60;99.90
3752;DHT22;50827;47.014;7.652;2023-07-09T01:21:27;20.50;99.90
3752;DHT22;50827;47.014;7.652;2023-07-09T01:23:54;20.50;99.90
3752;DHT22;50827;47.014;7.652;2023-07-09T01:26:24;20.50;99.90
3752;DHT22;50827;47.014;7.652;2023-07-09T01:28:56;20.40;99.90
3752;DHT22;50827;47.014;7.652;2023-07-09T01:31:23;20.40;99.90
3752;DHT22;50827;47.014;7.652;2023-07-09T01:33:50;20.40;99.90
3752;DHT22;50827;47.014;7.652;2023-07-09T01:36:20;20.30;99.90
3752;DHT22;50827;47.014;7.652;2023-07-09T01:38:53;20.30;99.90
3752;DHT22;50827;47.014;7.652;2023-07-09T01:41:22;20.30;99.90
3752;DHT22;50827;47.014;7.652;2023-07-09T01:43:49;20.30;99.90
3752;DHT22;50827;47.014;7.652;2023-07-09T01:46:16;20.30;99.90
3752;DHT22;50827;47.014;7.652;2023-07-09T01:48:43;20.10;99.90
3752;DHT22;50827;47.014;7.652;2023-07-09T01:51:13;20.10;99.90
3752;DHT22;50827;47.014;7.652;2023-07-09T01:53:41;20.10;99.90
3752;DHT22;50827;47.014;7.652;2023-07-09T01:56:08;20.00;99.90
3752;DHT22;50827;47.014;7.652;2023-07-09T01:58:34;20.10;99.90
3752;DHT22;50827;47.014;7.652;2023-07-09T02:01:01;20.10;99.90
3752;DHT22;50827;47.014;7.652;2023-07-09T02:03:28;20.10;99.90
3752;DHT22;50827;47.014;7.652;2023-07-09T02:05:55;20.10;99.90
3752;DHT22;50827;47.014;7.652;2023-07-09T02:08:24;20.10;99.90
3752;DHT22;50827;47.014;7.652;2023-07-09T02:10:51;20.00;99.90
3752;DHT22;50827;47.014;7.652;2023-07-09T02:13:17;20.00;99.90
3752;DHT22;50827;47.014;7.652;2023-07-09T02:15:44;20.00;99.90
3752;DHT22;50827;47.014;7.652;2023-07-09T02:18:12;20.00;99.90
3752;DHT22;50827;47.014;7.652;2023-07-09T02:20:39;19.90;99.90
3752;DHT22;50827;47.014;7.652;2023-07-09T02:23:07;19.90;99.90
3752;DHT22;50827;47.014;7.652;2023-07-09T02:25:34;19.80;99.90
3752;DHT22;50827;47.014;7.652;2023-07-09T02:28:01;19.80;99.90
3752;DHT22;50827;47.014;7.652;2023-07-09T02:30:28;19.70;99.90
3752;DHT22;50827;47.014;7.652;2023-07-09T02:32:55;19.70;99.90
3752;DHT22;50827;47.014;7.652;2023-07-09T02:35:22;19.80;99.90
3752;DHT22;50827;47.014;7.652;2023-07-09T02:37:49;19.80;99.90
3752;DHT22;50827;47.014;7.652;2023-07-09T02:40:16;19.80;99.90
3752;DHT22;50827;47.014;7.652;2023-07-09T02:42:43;19.90;99.90
3752;DHT22;50827;47.014;7.652;2023-07-09T02:45:10;19.90;99.90
3752;DHT22;50827;47.014;7.652;2023-07-09T02:47:37;19.90;99.90
3752;DHT22;50827;47.014;7.652;2023-07-09T02:50:04;19.80;99.90
3752;DHT22;50827;47.014;7.652;2023-07-09T02:52:31;19.90;99.90
3752;DHT22;50827;47.014;7.652;2023-07-09T02:54:58;19.80;99.90
3752;DHT22;50827;47.014;7.652;2023-07-09T02:57:25;19.90;99.90
3752;DHT22;50827;47.014;7.652;2023-07-09T02:59:51;19.90;99.90
3752;DHT22;50827;47.014;7.652;2023-07-09T03:02:18;19.90;99.90
3752;DHT22;50827;47.014;7.652;2023-07-09T03:04:45;19.80;99.90
3752;DHT22;50827;47.014;7.652;2023-07-09T03:07:11;19.70;99.90
3752;DHT22;50827;47.014;7.652;2023-07-09T03:09:38;19.70;99.90
3752;DHT22;50827;47.014;7.652;2023-07-09T03:12:05;19.70;99.90
3752;DHT22;50827;47.014;7.652;2023-07-09T03:14:32;19.70;99.90
3752;DHT22;50827;47.014;7.652;2023-07-09T03:16:59;19.60;99.90
3752;DHT22;50827;47.014;7.652;2023-07-09T03:19:26;19.60;99.90
3752;DHT22;50827;47.014;7.652;2023-07-09T03:21:53;19.60;99.90
3752;DHT22;50827;47.014;7.652;2023-07-09T03:24:20;19.70;99.90
3752;DHT22;50827;47.014;7.652;2023-07-09T03:26:47;19.60;99.90
3752;DHT22;50827;47.014;7.652;2023-07-09T03:29:14;19.60;99.90
3752;DHT22;50827;47.014;7.652;2023-07-09T03:31:41;19.60;99.90
3752;DHT22;50827;47.014;7.652;2023-07-09T03:34:08;19.50;99.90
3752;DHT22;50827;47.014;7.652;2023-07-09T03:36:35;19.50;99.90
3752;DHT22;50827;47.014;7.652;2023-07-09T03:39:05;19.50;99.90
3752;DHT22;50827;47.014;7.652;2023-07-09T03:41:32;19.50;99.90
3752;DHT22;50827;47.014;7.652;2023-07-09T03:43:59;19.50;99.90
3752;DHT22;50827;47.014;7.652;2023-07-09T03:46:26;19.50;99.90
3752;DHT22;50827;47.014;7.652;2023-07-09T03:48:53;19.50;99.90
3752;DHT22;50827;47.014;7.652;2023-07-09T03:51:19;19.30;99.90
3752;DHT22;50827;47.014;7.652;2023-07-09T03:53:46;19.20;99.90
3752;DHT22;50827;47.014;7.652;2023-07-09T03:56:13;19.20;99.90
3752;DHT22;50827;47.014;7.652;2023-07-09T03:58:40;19.10;99.90
3752;DHT22;50827;47.014;7.652;2023-07-09T04:01:07;18.90;99.90
3752;DHT22;50827;47.014;7.652;2023-07-09T04:03:33;18.80;99.90
3752;DHT22;50827;47.014;7.652;2023-07-09T04:06:00;18.80;99.90
3752;DHT22;50827;47.014;7.652;2023-07-09T04:08:28;18.80;99.90
3752;DHT22;50827;47.014;7.652;2023-07-09T04:10:55;18.80;99.90
3752;DHT22;50827;47.014;7.652;2023-07-09T04:13:25;18.80;99.90
3752;DHT22;50827;47.014;7.652;2023-07-09T04:15:53;18.80;99.90
3752;DHT22;50827;47.014;7.652;2023-07-09T04:18:20;18.80;99.90
3752;DHT22;50827;47.014;7.652;2023-07-09T04:20:50;19.00;99.90
3752;DHT22;50827;47.014;7.652;2023-07-09T04:23:18;18.90;99.90
3752;DHT22;50827;47.014;7.652;2023-07-09T04:25:45;18.90;99.90
3752;DHT22;50827;47.014;7.652;2023-07-09T04:28:13;18.90;99.90
3752;DHT22;50827;47.014;7.652;2023-07-09T04:30:48;18.90;99.90
3752;DHT22;50827;47.014;7.652;2023-07-09T04:33:16;19.00;99.90
3752;DHT22;50827;47.014;7.652;2023-07-09T04:35:47;19.00;99.90
3752;DHT22;50827;47.014;7.652;2023-07-09T04:38:15;19.00;99.90
3752;DHT22;50827;47.014;7.652;2023-07-09T04:40:42;19.00;99.90
3752;DHT22;50827;47.014;7.652;2023-07-09T04:43:09;19.00;99.90
3752;DHT22;50827;47.014;7.652;2023-07-09T04:45:36;19.00;99.90
3752;DHT22;50827;47.014;7.652;2023-07-09T04:48:03;19.10;99.90
3752;DHT22;50827;47.014;7.652;2023-07-09T04:50:30;19.10;99.90
3752;DHT22;50827;47.014;7.652;2023-07-09T04:52:58;19.10;99.90
3752;DHT22;50827;47.014;7.652;2023-07-09T04:55:25;19.10;99.90
3752;DHT22;50827;47.014;7.652;2023-07-09T04:57:53;19.20;99.90
3752;DHT22;50827;47.014;7.652;2023-07-09T05:00:19;19.20;99.90
3752;DHT22;50827;47.014;7.652;2023-07-09T05:02:46;19.30;99.90
3752;DHT22;50827;47.014;7.652;2023-07-09T05:05:13;19.30;99.90
3752;DHT22;50827;47.014;7.652;2023-07-09T05:07:41;19.40;99.90
3752;DHT22;50827;47.014;7.652;2023-07-09T05:10:09;19.40;99.90
3752;DHT22;50827;47.014;7.652;2023-07-09T05:12:47;19.40;99.90
3752;DHT22;50827;47.014;7.652;2023-07-09T05:15:15;19.40;99.90
3752;DHT22;50827;47.014;7.652;2023-07-09T05:17:41;19.50;99.90
3752;DHT22;50827;47.014;7.652;2023-07-09T05:20:09;19.50;99.90
3752;DHT22;50827;47.014;7.652;2023-07-09T05:22:35;19.60;99.90
3752;DHT22;50827;47.014;7.652;2023-07-09T05:25:02;19.60;99.90
3752;DHT22;50827;47.014;7.652;2023-07-09T05:27:29;19.60;99.90
3752;DHT22;50827;47.014;7.652;2023-07-09T05:29:56;19.70;99.90
3752;DHT22;50827;47.014;7.652;2023-07-09T05:32:23;19.70;99.90
3752;DHT22;50827;47.014;7.652;2023-07-09T05:34:49;19.90;99.90
3752;DHT22;50827;47.014;7.652;2023-07-09T05:37:16;20.00;99.90
3752;DHT22;50827;47.014;7.652;2023-07-09T05:39:43;20.10;99.90
3752;DHT22;50827;47.014;7.652;2023-07-09T05:42:10;20.20;99.90
3752;DHT22;50827;47.014;7.652;2023-07-09T05:44:36;20.30;99.90
3752;DHT22;50827;47.014;7.652;2023-07-09T05:47:03;20.40;99.90
3752;DHT22;50827;47.014;7.652;2023-07-09T05:49:30;20.50;99.90
3752;DHT22;50827;47.014;7.652;2023-07-09T05:51:57;20.60;99.90
3752;DHT22;50827;47.014;7.652;2023-07-09T05:54:24;20.70;99.90
3752;DHT22;50827;47.014;7.652;2023-07-09T05:56:51;20.90;99.90
3752;DHT22;50827;47.014;7.652;2023-07-09T05:59:20;21.00;99.90
3752;DHT22;50827;47.014;7.652;2023-07-09T06:01:47;21.10;99.90
3752;DHT22;50827;47.014;7.652;2023-07-09T06:04:13;21.20;99.90
3752;DHT22;50827;47.014;7.652;2023-07-09T06:06:41;21.20;99.90
3752;DHT22;50827;47.014;7.652;2023-07-09T06:09:08;21.20;99.90
3752;DHT22;50827;47.014;7.652;2023-07-09T06:11:35;21.40;99.90
3752;DHT22;50827;47.014;7.652;2023-07-09T06:14:02;21.50;99.90
3752;DHT22;50827;47.014;7.652;2023-07-09T06:16:29;21.60;99.90
3752;DHT22;50827;47.014;7.652;2023-07-09T06:18:56;21.60;99.90
3752;DHT22;50827;47.014;7.652;2023-07-09T06:21:22;21.60;99.90
3752;DHT22;50827;47.014;7.652;2023-07-09T06:23:49;21.60;99.90
3752;DHT22;50827;47.014;7.652;2023-07-09T06:26:16;21.70;99.90
3752;DHT22;50827;47.014;7.652;2023-07-09T06:28:43;21.70;99.90
3752;DHT22;50827;47.014;7.652;2023-07-09T06:31:10;21.70;99.90
3752;DHT22;50827;47.014;7.652;2023-07-09T06:33:37;21.80;99.90
3752;DHT22;50827;47.014;7.652;2023-07-09T06:36:04;21.80;99.90
3752;DHT22;50827;47.014;7.652;2023-07-09T06:38:31;21.90;99.90
3752;DHT22;50827;47.014;7.652;2023-07-09T06:40:59;21.90;99.90
3752;DHT22;50827;47.014;7.652;2023-07-09T06:43:25;22.00;99.90
3752;DHT22;50827;47.014;7.652;2023-07-09T06:45:58;22.00;99.90
3752;DHT22;50827;47.014;7.652;2023-07-09T06:48:26;22.00;99.90
3752;DHT22;50827;47.014;7.652;2023-07-09T06:50:55;22.00;99.90
3752;DHT22;50827;47.014;7.652;2023-07-09T06:53:22;22.10;99.90
3752;DHT22;50827;47.014;7.652;2023-07-09T06:55:49;22.10;99.90
3752;DHT22;50827;47.014;7.652;2023-07-09T06:58:17;22.20;99.90
3752;DHT22;50827;47.014;7.652;2023-07-09T07:00:44;22.20;99.90
3752;DHT22;50827;47.014;7.652;2023-07-09T07:03:11;22.20;99.90
3752;DHT22;50827;47.014;7.652;2023-07-09T07:05:43;22.30;99.90
3752;DHT22;50827;47.014;7.652;2023-07-09T07:08:10;22.40;99.90
3752;DHT22;50827;47.014;7.652;2023-07-09T07:10:37;22.40;99.90
3752;DHT22;50827;47.014;7.652;2023-07-09T07:13:08;22.50;99.90
3752;DHT22;50827;47.014;7.652;2023-07-09T07:15:37;22.50;99.90
3752;DHT22;50827;47.014;7.652;2023-07-09T07:18:04;22.60;99.90
3752;DHT22;50827;47.014;7.652;2023-07-09T07:20:32;22.60;99.90
3752;DHT22;50827;47.014;7.652;2023-07-09T07:22:59;22.70;99.90
3752;DHT22;50827;47.014;7.652;2023-07-09T07:25:26;22.70;99.90
3752;DHT22;50827;47.014;7.652;2023-07-09T07:27:53;22.80;99.90
3752;DHT22;50827;47.014;7.652;2023-07-09T07:30:20;22.80;99.90
3752;DHT22;50827;47.014;7.652;2023-07-09T07:32:51;22.90;99.90
3752;DHT22;50827;47.014;7.652;2023-07-09T07:35:18;23.00;99.90
3752;DHT22;50827;47.014;7.652;2023-07-09T07:37:46;23.00;99.90
3752;DHT22;50827;47.014;7.652;2023-07-09T07:40:13;23.10;99.90
3752;DHT22;50827;47.014;7.652;2023-07-09T07:42:40;23.10;99.90
3752;DHT22;50827;47.014;7.652;2023-07-09T07:45:08;23.20;99.90
3752;DHT22;50827;47.014;7.652;2023-07-09T07:47:35;23.20;99.90
3752;DHT22;50827;47.014;7.652;2023-07-09T07:50:05;23.30;99.90
3752;DHT22;50827;47.014;7.652;2023-07-09T07:52:31;23.40;99.90
3752;DHT22;50827;47.014;7.652;2023-07-09T07:54:58;23.40;99.90
3752;DHT22;50827;47.014;7.652;2023-07-09T07:57:25;23.50;99.90
3752;DHT22;50827;47.014;7.652;2023-07-09T07:59:52;23.50;99.90
3752;DHT22;50827;47.014;7.652;2023-07-09T08:02:21;23.60;99.90
3752;DHT22;50827;47.014;7.652;2023-07-09T08:04:48;23.70;99.90
3752;DHT22;50827;47.014;7.652;2023-07-09T08:07:14;23.70;99.90
3752;DHT22;50827;47.014;7.652;2023-07-09T08:09:41;23.80;99.90
3752;DHT22;50827;47.014;7.652;2023-07-09T08:12:09;23.90;99.90
3752;DHT22;50827;47.014;7.652;2023-07-09T08:14:44;23.90;99.90
3752;DHT22;50827;47.014;7.652;2023-07-09T08:17:11;24.00;99.90
3752;DHT22;50827;47.014;7.652;2023-07-09T08:19:45;24.00;99.90
3752;DHT22;50827;47.014;7.652;2023-07-09T08:22:12;24.10;99.90
3752;DHT22;50827;47.014;7.652;2023-07-09T08:24:39;24.20;99.90
3752;DHT22;50827;47.014;7.652;2023-07-09T08:27:08;24.30;99.90
3752;DHT22;50827;47.014;7.652;2023-07-09T08:29:35;24.40;99.90
3752;DHT22;50827;47.014;7.652;2023-07-09T08:32:03;24.40;99.90
3752;DHT22;50827;47.014;7.652;2023-07-09T08:34:30;24.50;99.90
3752;DHT22;50827;47.014;7.652;2023-07-09T08:36:57;24.60;99.90
3752;DHT22;50827;47.014;7.652;2023-07-09T08:39:24;24.60;99.90
3752;DHT22;50827;47.014;7.652;2023-07-09T08:41:59;24.70;99.90
3752;DHT22;50827;47.014;7.652;2023-07-09T08:47:42;24.80;99.90
3752;DHT22;50827;47.014;7.652;2023-07-09T08:50:15;24.90;99.90
3752;DHT22;50827;47.014;7.652;2023-07-09T08:52:44;24.90;99.90
3752;DHT22;50827;47.014;7.652;2023-07-09T08:55:20;25.00;99.90
3752;DHT22;50827;47.014;7.652;2023-07-09T08:57:54;25.00;99.90
3752;DHT22;50827;47.014;7.652;2023-07-09T09:00:36;25.20;99.90
3752;DHT22;50827;47.014;7.652;2023-07-09T09:03:19;25.20;99.90
3752;DHT22;50827;47.014;7.652;2023-07-09T09:05:49;25.30;99.90
3752;DHT22;50827;47.014;7.652;2023-07-09T09:13:38;25.50;99.90
3752;DHT22;50827;47.014;7.652;2023-07-09T09:19:00;25.60;99.90
3752;DHT22;50827;47.014;7.652;2023-07-09T09:23:58;25.60;99.90
3752;DHT22;50827;47.014;7.652;2023-07-09T09:26:35;25.70;99.90
3752;DHT22;50827;47.014;7.652;2023-07-09T09:29:11;25.80;99.90
3752;DHT22;50827;47.014;7.652;2023-07-09T09:31:38;25.90;99.90
3752;DHT22;50827;47.014;7.652;2023-07-09T09:34:05;25.90;99.90
3752;DHT22;50827;47.014;7.652;2023-07-09T09:36:37;26.00;99.90
3752;DHT22;50827;47.014;7.652;2023-07-09T09:39:04;26.10;99.90
3752;DHT22;50827;47.014;7.652;2023-07-09T09:41:34;26.10;99.90
3752;DHT22;50827;47.014;7.652;2023-07-09T09:44:02;26.20;99.90
3752;DHT22;50827;47.014;7.652;2023-07-09T09:46:31;26.30;99.90
3752;DHT22;50827;47.014;7.652;2023-07-09T09:49:02;26.40;99.90
3752;DHT22;50827;47.014;7.652;2023-07-09T09:51:36;26.50;99.90
3752;DHT22;50827;47.014;7.652;2023-07-09T09:54:14;26.50;99.90
3752;DHT22;50827;47.014;7.652;2023-07-09T09:56:42;26.60;99.90
3752;DHT22;50827;47.014;7.652;2023-07-09T09:59:29;26.60;99.90
3752;DHT22;50827;47.014;7.652;2023-07-09T10:02:02;26.60;99.90
3752;DHT22;50827;47.014;7.652;2023-07-09T10:04:29;26.70;99.90
3752;DHT22;50827;47.014;7.652;2023-07-09T10:07:01;26.80;99.90
3752;DHT22;50827;47.014;7.652;2023-07-09T10:15:08;26.90;99.90
3752;DHT22;50827;47.014;7.652;2023-07-09T10:18:02;27.00;99.90
3752;DHT22;50827;47.014;7.652;2023-07-09T10:20:41;27.10;99.90
3752;DHT22;50827;47.014;7.652;2023-07-09T10:23:17;27.20;99.90
3752;DHT22;50827;47.014;7.652;2023-07-09T10:28:48;27.40;99.90
3752;DHT22;50827;47.014;7.652;2023-07-09T10:37:16;27.60;99.90
3752;DHT22;50827;47.014;7.652;2023-07-09T10:39:53;27.60;99.90
3752;DHT22;50827;47.014;7.652;2023-07-09T10:45:02;27.70;99.90
3752;DHT22;50827;47.014;7.652;2023-07-09T10:47:38;27.90;99.90
3752;DHT22;50827;47.014;7.652;2023-07-09T10:52:59;27.90;99.90
3752;DHT22;50827;47.014;7.652;2023-07-09T10:55:38;28.10;99.90
3752;DHT22;50827;47.014;7.652;2023-07-09T11:00:41;28.20;99.90
3752;DHT22;50827;47.014;7.652;2023-07-09T11:03:35;28.30;99.90
3752;DHT22;50827;47.014;7.652;2023-07-09T11:06:27;28.40;99.90
3752;DHT22;50827;47.014;7.652;2023-07-09T11:08:57;28.40;99.90
3752;DHT22;50827;47.014;7.652;2023-07-09T11:11:31;28.40;99.90
3752;DHT22;50827;47.014;7.652;2023-07-09T11:15:03;28.50;99.90
3752;DHT22;50827;47.014;7.652;2023-07-09T11:17:15;28.60;99.90
3752;DHT22;50827;47.014;7.652;2023-07-09T11:19:46;28.70;99.90
3752;DHT22;50827;47.014;7.652;2023-07-09T11:22:40;28.70;99.90
3752;DHT22;50827;47.014;7.652;2023-07-09T11:25:14;28.80;99.90
3752;DHT22;50827;47.014;7.652;2023-07-09T11:27:49;28.90;99.90
3752;DHT22;50827;47.014;7.652;2023-07-09T11:30:24;28.90;99.90
3752;DHT22;50827;47.014;7.652;2023-07-09T11:33:00;29.00;99.90
3752;DHT22;50827;47.014;7.652;2023-07-09T11:35:53;29.00;99.90
3752;DHT22;50827;47.014;7.652;2023-07-09T11:38:24;29.20;99.90
3752;DHT22;50827;47.014;7.652;2023-07-09T11:40:53;29.20;99.90
3752;DHT22;50827;47.014;7.652;2023-07-09T11:43:33;29.20;99.90
3752;DHT22;50827;47.014;7.652;2023-07-09T11:46:11;29.30;99.90
3752;DHT22;50827;47.014;7.652;2023-07-09T11:48:41;29.40;99.90
3752;DHT22;50827;47.014;7.652;2023-07-09T11:51:21;29.40;99.90
3752;DHT22;50827;47.014;7.652;2023-07-09T11:53:52;29.50;99.90
3752;DHT22;50827;47.014;7.652;2023-07-09T11:56:23;29.50;99.90
3752;DHT22;50827;47.014;7.652;2023-07-09T11:58:54;29.60;99.90
3752;DHT22;50827;47.014;7.652;2023-07-09T12:01:26;29.60;99.90
3752;DHT22;50827;47.014;7.652;2023-07-09T12:03:56;29.60;99.90
3752;DHT22;50827;47.014;7.652;2023-07-09T12:06:27;29.70;99.90
3752;DHT22;50827;47.014;7.652;2023-07-09T12:08:55;29.80;99.90
3752;DHT22;50827;47.014;7.652;2023-07-09T12:11:30;29.80;99.90
3752;DHT22;50827;47.014;7.652;2023-07-09T12:14:11;29.90;99.90
3752;DHT22;50827;47.014;7.652;2023-07-09T12:16:40;30.00;99.90
3752;DHT22;50827;47.014;7.652;2023-07-09T12:19:12;30.00;99.90
3752;DHT22;50827;47.014;7.652;2023-07-09T12:21:42;30.00;99.90
3752;DHT22;50827;47.014;7.652;2023-07-09T12:24:28;30.10;99.90
3752;DHT22;50827;47.014;7.652;2023-07-09T12:27:00;30.10;99.90
3752;DHT22;50827;47.014;7.652;2023-07-09T12:29:34;30.20;99.90
3752;DHT22;50827;47.014;7.652;2023-07-09T12:32:13;30.20;99.90
3752;DHT22;50827;47.014;7.652;2023-07-09T12:34:40;30.30;99.90
3752;DHT22;50827;47.014;7.652;2023-07-09T12:37:14;30.40;99.90
3752;DHT22;50827;47.014;7.652;2023-07-09T12:39:42;30.30;99.90
3752;DHT22;50827;47.014;7.652;2023-07-09T12:42:17;30.40;99.90
3752;DHT22;50827;47.014;7.652;2023-07-09T12:44:45;30.50;99.90
3752;DHT22;50827;47.014;7.652;2023-07-09T12:47:16;30.50;99.90
3752;DHT22;50827;47.014;7.652;2023-07-09T12:49:44;30.60;99.90
3752;DHT22;50827;47.014;7.652;2023-07-09T12:52:18;30.70;99.90
3752;DHT22;50827;47.014;7.652;2023-07-09T12:54:56;30.70;99.90
3752;DHT22;50827;47.014;7.652;2023-07-09T12:57:25;30.80;99.90
3752;DHT22;50827;47.014;7.652;2023-07-09T12:59:53;30.80;99.90
3752;DHT22;50827;47.014;7.652;2023-07-09T13:02:28;30.90;99.90
3752;DHT22;50827;47.014;7.652;2023-07-09T13:05:13;30.90;99.90
3752;DHT22;50827;47.014;7.652;2023-07-09T13:07:47;30.90;99.90
3752;DHT22;50827;47.014;7.652;2023-07-09T13:10:18;31.00;99.90
3752;DHT22;50827;47.014;7.652;2023-07-09T13:12:49;31.00;99.90
3752;DHT22;50827;47.014;7.652;2023-07-09T13:15:29;31.00;99.90
3752;DHT22;50827;47.014;7.652;2023-07-09T13:18:09;31.10;99.90
3752;DHT22;50827;47.014;7.652;2023-07-09T13:20:42;31.10;99.90
3752;DHT22;50827;47.014;7.652;2023-07-09T13:23:17;31.10;99.90
3752;DHT22;50827;47.014;7.652;2023-07-09T13:25:45;31.10;99.90
3752;DHT22;50827;47.014;7.652;2023-07-09T13:30:43;31.20;99.90
3752;DHT22;50827;47.014;7.652;2023-07-09T13:33:10;31.30;99.90
3752;DHT22;50827;47.014;7.652;2023-07-09T13:35:38;31.30;99.90
3752;DHT22;50827;47.014;7.652;2023-07-09T13:38:13;31.30;99.90
3752;DHT22;50827;47.014;7.652;2023-07-09T13:40:41;31.40;99.90
3752;DHT22;50827;47.014;7.652;2023-07-09T13:43:19;31.40;99.90
3752;DHT22;50827;47.014;7.652;2023-07-09T13:45:46;31.40;99.90
3752;DHT22;50827;47.014;7.652;2023-07-09T13:48:17;31.50;99.90
3752;DHT22;50827;47.014;7.652;2023-07-09T13:50:45;31.50;99.90
3752;DHT22;50827;47.014;7.652;2023-07-09T13:53:22;31.60;99.90
3752;DHT22;50827;47.014;7.652;2023-07-09T13:55:49;31.50;99.90
3752;DHT22;50827;47.014;7.652;2023-07-09T13:58:19;31.50;99.90
3752;DHT22;50827;47.014;7.652;2023-07-09T14:00:47;31.40;99.90
3752;DHT22;50827;47.014;7.652;2023-07-09T14:03:22;31.40;99.90
3752;DHT22;50827;47.014;7.652;2023-07-09T14:05:50;31.40;99.90
3752;DHT22;50827;47.014;7.652;2023-07-09T14:08:17;31.40;99.90
3752;DHT22;50827;47.014;7.652;2023-07-09T14:10:46;31.40;99.90
3752;DHT22;50827;47.014;7.652;2023-07-09T14:13:19;31.40;99.90
3752;DHT22;50827;47.014;7.652;2023-07-09T14:15:47;31.40;99.90
3752;DHT22;50827;47.014;7.652;2023-07-09T14:18:16;31.40;99.90
3752;DHT22;50827;47.014;7.652;2023-07-09T14:20:44;31.50;99.90
3752;DHT22;50827;47.014;7.652;2023-07-09T14:23:12;31.40;99.90
3752;DHT22;50827;47.014;7.652;2023-07-09T14:25:40;31.40;99.90
3752;DHT22;50827;47.014;7.652;2023-07-09T14:28:12;31.40;99.90
3752;DHT22;50827;47.014;7.652;2023-07-09T14:30:39;31.40;99.90
3752;DHT22;50827;47.014;7.652;2023-07-09T14:33:12;31.40;99.90
3752;DHT22;50827;47.014;7.652;2023-07-09T14:35:39;31.40;99.90
3752;DHT22;50827;47.014;7.652;2023-07-09T14:38:15;31.40;99.90
3752;DHT22;50827;47.014;7.652;2023-07-09T14:40:45;31.40;99.90
3752;DHT22;50827;47.014;7.652;2023-07-09T14:43:12;31.40;99.90
3752;DHT22;50827;47.014;7.652;2023-07-09T14:45:40;31.40;99.90
3752;DHT22;50827;47.014;7.652;2023-07-09T14:48:12;31.40;99.90
3752;DHT22;50827;47.014;7.652;2023-07-09T14:50:39;31.40;99.90
3752;DHT22;50827;47.014;7.652;2023-07-09T14:53:17;31.40;99.90
3752;DHT22;50827;47.014;7.652;2023-07-09T14:55:46;31.30;99.90
3752;DHT22;50827;47.014;7.652;2023-07-09T14:58:15;31.20;99.90
3752;DHT22;50827;47.014;7.652;2023-07-09T15:00:43;31.10;99.90
3752;DHT22;50827;47.014;7.652;2023-07-09T15:03:22;31.00;99.90
3752;DHT22;50827;47.014;7.652;2023-07-09T15:05:49;30.90;99.90
3752;DHT22;50827;47.014;7.652;2023-07-09T15:08:18;30.80;99.90
3752;DHT22;50827;47.014;7.652;2023-07-09T15:10:46;30.80;99.90
3752;DHT22;50827;47.014;7.652;2023-07-09T15:13:34;30.70;99.90
3752;DHT22;50827;47.014;7.652;2023-07-09T15:16:02;30.60;99.90
3752;DHT22;50827;47.014;7.652;2023-07-09T15:18:30;30.50;99.90
3752;DHT22;50827;47.014;7.652;2023-07-09T15:21:01;30.40;99.90
3752;DHT22;50827;47.014;7.652;2023-07-09T15:23:29;30.30;99.90
3752;DHT22;50827;47.014;7.652;2023-07-09T15:25:57;30.40;99.90
3752;DHT22;50827;47.014;7.652;2023-07-09T15:28:24;30.30;99.90
3752;DHT22;50827;47.014;7.652;2023-07-09T15:30:51;30.30;99.90
3752;DHT22;50827;47.014;7.652;2023-07-09T15:33:19;30.30;99.90
3752;DHT22;50827;47.014;7.652;2023-07-09T15:35:48;30.20;99.90
3752;DHT22;50827;47.014;7.652;2023-07-09T15:38:28;30.10;99.90
3752;DHT22;50827;47.014;7.652;2023-07-09T15:40:56;30.10;99.90
3752;DHT22;50827;47.014;7.652;2023-07-09T15:43:23;30.00;99.90
3752;DHT22;50827;47.014;7.652;2023-07-09T15:45:51;30.00;99.90
3752;DHT22;50827;47.014;7.652;2023-07-09T15:48:31;29.90;99.90
3752;DHT22;50827;47.014;7.652;2023-07-09T15:51:00;29.80;99.90
3752;DHT22;50827;47.014;7.652;2023-07-09T15:53:29;29.80;99.90
3752;DHT22;50827;47.014;7.652;2023-07-09T15:56:01;29.70;99.90
3752;DHT22;50827;47.014;7.652;2023-07-09T15:58:38;29.60;99.90
3752;DHT22;50827;47.014;7.652;2023-07-09T16:01:11;29.60;99.90
3752;DHT22;50827;47.014;7.652;2023-07-09T16:03:39;29.60;99.90
3752;DHT22;50827;47.014;7.652;2023-07-09T16:06:05;29.70;99.90
3752;DHT22;50827;47.014;7.652;2023-07-09T16:08:32;29.60;99.90
3752;DHT22;50827;47.014;7.652;2023-07-09T16:10:59;29.60;99.90
3752;DHT22;50827;47.014;7.652;2023-07-09T16:13:26;29.60;99.90
3752;DHT22;50827;47.014;7.652;2023-07-09T16:15:53;29.60;99.90
3752;DHT22;50827;47.014;7.652;2023-07-09T16:18:20;29.40;99.90
3752;DHT22;50827;47.014;7.652;2023-07-09T16:20:47;29.60;99.90
3752;DHT22;50827;47.014;7.652;2023-07-09T16:23:19;29.80;99.90
3752;DHT22;50827;47.014;7.652;2023-07-09T16:25:47;30.00;99.90
3752;DHT22;50827;47.014;7.652;2023-07-09T16:28:16;30.10;99.90
3752;DHT22;50827;47.014;7.652;2023-07-09T16:30:45;30.10;99.90
3752;DHT22;50827;47.014;7.652;2023-07-09T16:33:13;30.20;99.90
3752;DHT22;50827;47.014;7.652;2023-07-09T16:35:40;30.20;99.90
3752;DHT22;50827;47.014;7.652;2023-07-09T16:38:11;30.20;99.90
3752;DHT22;50827;47.014;7.652;2023-07-09T16:40:38;30.30;99.90